sensor_id;sensor_type;location;lat;lon;timestamp;temperature;humidity
57664;DHT22;43493;53.098;6.064;2023-02-01T00:01:33;6.30;99.90
57664;DHT22;43493;53.098;6.064;2023-02-01T00:03:59;6.30;99.90
57664;DHT22;43493;53.098;6.064;2023-02-01T00:06:24;6.30;99.90
57664;DHT22;43493;53.098;6.064;2023-02-01T00:08:54;6.30;99.90
57664;DHT22;43493;53.098;6.064;2023-02-01T00:11:21;6.30;99.90
57664;DHT22;43493;53.098;6.064;2023-02-01T00:13:47;6.30;99.90
57664;DHT22;43493;53.098;6.064;2023-02-01T00:16:15;6.30;99.90
57664;DHT22;43493;53.098;6.064;2023-02-01T00:18:45;6.30;99.90
57664;DHT22;43493;53.098;6.064;2023-02-01T00:21:12;6.30;99.90
57664;DHT22;43493;53.098;6.064;2023-02-01T00:23:38;6.30;99.90
57664;DHT22;43493;53.098;6.064;2023-02-01T00:26:11;6.30;99.90
57664;DHT22;43493;53.098;6.064;2023-02-01T00:28:38;6.30;99.90
57664;DHT22;43493;53.098;6.064;2023-02-01T00:31:04;6.30;99.90
57664;DHT22;43493;53.098;6.064;2023-02-01T00:33:31;6.30;99.90
57664;DHT22;43493;53.098;6.064;2023-02-01T00:36:02;6.30;99.90
57664;DHT22;43493;53.098;6.064;2023-02-01T00:38:29;6.30;99.90
57664;DHT22;43493;53.098;6.064;2023-02-01T00:41:03;6.30;99.90
57664;DHT22;43493;53.098;6.064;2023-02-01T00:43:30;6.30;99.90
57664;DHT22;43493;53.098;6.064;2023-02-01T00:45:56;6.30;99.90
57664;DHT22;43493;53.098;6.064;2023-02-01T00:48:22;6.30;99.90
57664;DHT22;43493;53.098;6.064;2023-02-01T00:50:47;6.30;99.90
57664;DHT22;43493;53.098;6.064;2023-02-01T00:53:13;6.30;99.90
57664;DHT22;43493;53.098;6.064;2023-02-01T00:55:39;6.40;99.90
57664;DHT22;43493;53.098;6.064;2023-02-01T00:58:04;6.40;99.90
57664;DHT22;43493;53.098;6.064;2023-02-01T01:00:32;6.40;99.90
57664;DHT22;43493;53.098;6.064;2023-02-01T01:02:58;6.40;99.90
57664;DHT22;43493;53.098;6.064;2023-02-01T01:05:24;6.40;99.90
57664;DHT22;43493;53.098;6.064;2023-02-01T01:07:49;6.40;99.90
57664;DHT22;43493;53.098;6.064;2023-02-01T01:10:15;6.40;99.90
57664;DHT22;43493;53.098;6.064;2023-02-01T01:12:41;6.40;99.90
57664;DHT22;43493;53.098;6.064;2023-02-01T01:15:07;6.40;99.90
57664;DHT22;43493;53.098;6.064;2023-02-01T01:17:33;6.50;99.90
57664;DHT22;43493;53.098;6.064;2023-02-01T01:19:59;6.50;99.90
57664;DHT22;43493;53.098;6.064;2023-02-01T01:22:25;6.50;99.90
57664;DHT22;43493;53.098;6.064;2023-02-01T01:24:50;6.50;99.90
57664;DHT22;43493;53.098;6.064;2023-02-01T01:27:16;6.50;99.90
57664;DHT22;43493;53.098;6.064;2023-02-01T01:29:48;6.50;99.90
57664;DHT22;43493;53.098;6.064;2023-02-01T01:32:14;6.50;99.90
57664;DHT22;43493;53.098;6.064;2023-02-01T01:34:40;6.50;99.90
57664;DHT22;43493;53.098;6.064;2023-02-01T01:37:05;6.50;99.90
57664;DHT22;43493;53.098;6.064;2023-02-01T01:39:31;6.50;99.90
57664;DHT22;43493;53.098;6.064;2023-02-01T01:41:57;6.60;99.90
57664;DHT22;43493;53.098;6.064;2023-02-01T01:44:58;6.50;99.90
57664;DHT22;43493;53.098;6.064;2023-02-01T01:47:27;6.50;99.90
57664;DHT22;43493;53.098;6.064;2023-02-01T01:49:54;6.50;99.90
57664;DHT22;43493;53.098;6.064;2023-02-01T01:52:20;6.50;99.90
57664;DHT22;43493;53.098;6.064;2023-02-01T01:54:48;6.40;99.90
57664;DHT22;43493;53.098;6.064;2023-02-01T01:57:39;6.50;99.90
57664;DHT22;43493;53.098;6.064;2023-02-01T02:00:09;6.50;99.90
57664;DHT22;43493;53.098;6.064;2023-02-01T02:02:36;6.30;99.90
57664;DHT22;43493;53.098;6.064;2023-02-01T02:05:04;6.40;99.90
57664;DHT22;43493;53.098;6.064;2023-02-01T02:07:36;6.40;99.90
57664;DHT22;43493;53.098;6.064;2023-02-01T02:10:09;6.40;99.90
57664;DHT22;43493;53.098;6.064;2023-02-01T02:12:40;6.40;99.90
57664;DHT22;43493;53.098;6.064;2023-02-01T02:15:08;6.40;99.90
57664;DHT22;43493;53.098;6.064;2023-02-01T02:23:19;6.40;99.90
57664;DHT22;43493;53.098;6.064;2023-02-01T02:41:32;6.40;99.90
57664;DHT22;43493;53.098;6.064;2023-02-01T02:50:58;6.40;99.90
57664;DHT22;43493;53.098;6.064;2023-02-01T02:56:48;6.40;99.90
57664;DHT22;43493;53.098;6.064;2023-02-01T02:59:34;6.40;99.90
57664;DHT22;43493;53.098;6.064;2023-02-01T03:02:18;6.40;99.90
57664;DHT22;43493;53.098;6.064;2023-02-01T03:05:04;6.50;99.90
57664;DHT22;43493;53.098;6.064;2023-02-01T03:10:17;6.40;99.90
57664;DHT22;43493;53.098;6.064;2023-02-01T03:12:46;6.50;99.90
57664;DHT22;43493;53.098;6.064;2023-02-01T03:18:13;6.50;99.90
57664;DHT22;43493;53.098;6.064;2023-02-01T03:20:44;6.50;99.90
57664;DHT22;43493;53.098;6.064;2023-02-01T03:23:13;6.50;99.90
57664;DHT22;43493;53.098;6.064;2023-02-01T03:25:42;6.50;99.90
57664;DHT22;43493;53.098;6.064;2023-02-01T03:28:09;6.50;99.90
57664;DHT22;43493;53.098;6.064;2023-02-01T03:30:41;6.50;99.90
57664;DHT22;43493;53.098;6.064;2023-02-01T03:33:11;6.50;99.90
57664;DHT22;43493;53.098;6.064;2023-02-01T03:35:55;6.50;99.90
57664;DHT22;43493;53.098;6.064;2023-02-01T03:38:30;6.60;99.90
57664;DHT22;43493;53.098;6.064;2023-02-01T03:43:23;6.60;99.90
57664;DHT22;43493;53.098;6.064;2023-02-01T03:45:55;6.60;99.90
57664;DHT22;43493;53.098;6.064;2023-02-01T03:48:23;6.60;99.90
57664;DHT22;43493;53.098;6.064;2023-02-01T03:50:54;6.60;99.90
57664;DHT22;43493;53.098;6.064;2023-02-01T03:53:22;6.60;99.90
57664;DHT22;43493;53.098;6.064;2023-02-01T03:55:50;6.60;99.90
57664;DHT22;43493;53.098;6.064;2023-02-01T03:58:19;6.60;99.90
57664;DHT22;43493;53.098;6.064;2023-02-01T04:00:56;6.60;99.90
57664;DHT22;43493;53.098;6.064;2023-02-01T04:03:23;6.60;99.90
57664;DHT22;43493;53.098;6.064;2023-02-01T04:05:49;6.60;99.90
57664;DHT22;43493;53.098;6.064;2023-02-01T04:08:15;6.60;99.90
57664;DHT22;43493;53.098;6.064;2023-02-01T04:10:41;6.60;99.90
57664;DHT22;43493;53.098;6.064;2023-02-01T04:13:06;6.60;99.90
57664;DHT22;43493;53.098;6.064;2023-02-01T04:15:33;6.60;99.90
57664;DHT22;43493;53.098;6.064;2023-02-01T04:18:00;6.60;99.90
57664;DHT22;43493;53.098;6.064;2023-02-01T04:20:26;6.60;99.90
57664;DHT22;43493;53.098;6.064;2023-02-01T04:22:52;6.60;99.90
57664;DHT22;43493;53.098;6.064;2023-02-01T04:25:17;6.60;99.90
57664;DHT22;43493;53.098;6.064;2023-02-01T04:27:43;6.60;99.90
57664;DHT22;43493;53.098;6.064;2023-02-01T04:30:09;6.60;99.90
57664;DHT22;43493;53.098;6.064;2023-02-01T04:32:36;6.60;99.90
57664;DHT22;43493;53.098;6.064;2023-02-01T04:35:02;6.60;99.90
57664;DHT22;43493;53.098;6.064;2023-02-01T04:37:28;6.60;99.90
57664;DHT22;43493;53.098;6.064;2023-02-01T04:39:54;6.60;99.90
57664;DHT22;43493;53.098;6.064;2023-02-01T04:42:20;6.50;99.90
57664;DHT22;43493;53.098;6.064;2023-02-01T04:44:46;6.50;99.90
57664;DHT22;43493;53.098;6.064;2023-02-01T04:47:11;6.40;99.90
57664;DHT22;43493;53.098;6.064;2023-02-01T04:49:37;6.40;99.90
57664;DHT22;43493;53.098;6.064;2023-02-01T04:52:03;6.40;99.90
57664;DHT22;43493;53.098;6.064;2023-02-01T04:54:29;6.30;99.90
57664;DHT22;43493;53.098;6.064;2023-02-01T04:56:55;6.30;99.90
57664;DHT22;43493;53.098;6.064;2023-02-01T04:59:21;6.30;99.90
57664;DHT22;43493;53.098;6.064;2023-02-01T05:01:47;6.30;99.90
57664;DHT22;43493;53.098;6.064;2023-02-01T05:04:13;6.30;99.90
57664;DHT22;43493;53.098;6.064;2023-02-01T05:06:38;6.40;99.90
57664;DHT22;43493;53.098;6.064;2023-02-01T05:09:04;6.40;99.90
57664;DHT22;43493;53.098;6.064;2023-02-01T05:11:30;6.40;99.90
57664;DHT22;43493;53.098;6.064;2023-02-01T05:14:14;6.40;99.90
57664;DHT22;43493;53.098;6.064;2023-02-01T05:16:40;6.40;99.90
57664;DHT22;43493;53.098;6.064;2023-02-01T05:19:06;6.40;99.90
57664;DHT22;43493;53.098;6.064;2023-02-01T05:21:32;6.40;99.90
57664;DHT22;43493;53.098;6.064;2023-02-01T05:23:57;6.50;99.90
57664;DHT22;43493;53.098;6.064;2023-02-01T05:26:36;6.50;99.90
57664;DHT22;43493;53.098;6.064;2023-02-01T05:29:02;6.50;99.90
57664;DHT22;43493;53.098;6.064;2023-02-01T05:31:28;6.50;99.90
57664;DHT22;43493;53.098;6.064;2023-02-01T05:33:54;6.60;99.90
57664;DHT22;43493;53.098;6.064;2023-02-01T05:36:19;6.60;99.90
57664;DHT22;43493;53.098;6.064;2023-02-01T05:38:45;6.60;99.90
57664;DHT22;43493;53.098;6.064;2023-02-01T05:41:11;6.60;99.90
57664;DHT22;43493;53.098;6.064;2023-02-01T05:43:37;6.60;99.90
57664;DHT22;43493;53.098;6.064;2023-02-01T05:46:03;6.60;99.90
57664;DHT22;43493;53.098;6.064;2023-02-01T05:48:28;6.60;99.90
57664;DHT22;43493;53.098;6.064;2023-02-01T05:50:54;6.60;99.90
57664;DHT22;43493;53.098;6.064;2023-02-01T05:53:20;6.60;99.90
57664;DHT22;43493;53.098;6.064;2023-02-01T05:55:45;6.60;99.90
57664;DHT22;43493;53.098;6.064;2023-02-01T05:58:11;6.50;99.90
57664;DHT22;43493;53.098;6.064;2023-02-01T06:00:38;6.50;99.90
57664;DHT22;43493;53.098;6.064;2023-02-01T06:03:03;6.50;99.90
57664;DHT22;43493;53.098;6.064;2023-02-01T06:05:29;6.40;99.90
57664;DHT22;43493;53.098;6.064;2023-02-01T06:07:55;6.40;99.90
57664;DHT22;43493;53.098;6.064;2023-02-01T06:10:21;6.40;99.90
57664;DHT22;43493;53.098;6.064;2023-02-01T06:12:47;6.40;99.90
57664;DHT22;43493;53.098;6.064;2023-02-01T06:15:13;6.40;99.90
57664;DHT22;43493;53.098;6.064;2023-02-01T06:17:44;6.40;99.90
57664;DHT22;43493;53.098;6.064;2023-02-01T06:20:11;6.30;99.90
57664;DHT22;43493;53.098;6.064;2023-02-01T06:22:37;6.30;99.90
57664;DHT22;43493;53.098;6.064;2023-02-01T06:25:07;6.20;99.90
57664;DHT22;43493;53.098;6.064;2023-02-01T06:27:34;6.20;99.90
57664;DHT22;43493;53.098;6.064;2023-02-01T06:29:59;6.20;99.90
57664;DHT22;43493;53.098;6.064;2023-02-01T06:32:25;6.20;99.90
57664;DHT22;43493;53.098;6.064;2023-02-01T06:34:51;6.20;99.90
57664;DHT22;43493;53.098;6.064;2023-02-01T06:37:22;6.20;99.90
57664;DHT22;43493;53.098;6.064;2023-02-01T06:39:48;6.30;99.90
57664;DHT22;43493;53.098;6.064;2023-02-01T06:42:14;6.30;99.90
57664;DHT22;43493;53.098;6.064;2023-02-01T06:44:40;6.30;99.90
57664;DHT22;43493;53.098;6.064;2023-02-01T06:47:06;6.30;99.90
57664;DHT22;43493;53.098;6.064;2023-02-01T06:49:32;6.40;99.90
57664;DHT22;43493;53.098;6.064;2023-02-01T06:51:57;6.40;99.90
57664;DHT22;43493;53.098;6.064;2023-02-01T06:54:26;6.30;99.90
57664;DHT22;43493;53.098;6.064;2023-02-01T06:56:51;6.40;99.90
57664;DHT22;43493;53.098;6.064;2023-02-01T06:59:17;6.30;99.90
57664;DHT22;43493;53.098;6.064;2023-02-01T07:01:43;6.40;99.90
57664;DHT22;43493;53.098;6.064;2023-02-01T07:04:13;6.40;99.90
57664;DHT22;43493;53.098;6.064;2023-02-01T07:06:39;6.40;99.90
57664;DHT22;43493;53.098;6.064;2023-02-01T07:09:05;6.40;99.90
57664;DHT22;43493;53.098;6.064;2023-02-01T07:11:31;6.40;99.90
57664;DHT22;43493;53.098;6.064;2023-02-01T07:13:57;6.40;99.90
57664;DHT22;43493;53.098;6.064;2023-02-01T07:16:23;6.40;99.90
57664;DHT22;43493;53.098;6.064;2023-02-01T07:18:50;6.40;99.90
57664;DHT22;43493;53.098;6.064;2023-02-01T07:21:17;6.40;99.90
57664;DHT22;43493;53.098;6.064;2023-02-01T07:23:43;6.50;99.90
57664;DHT22;43493;53.098;6.064;2023-02-01T07:26:10;6.40;99.90
57664;DHT22;43493;53.098;6.064;2023-02-01T07:28:38;6.40;99.90
57664;DHT22;43493;53.098;6.064;2023-02-01T07:31:09;6.40;99.90
57664;DHT22;43493;53.098;6.064;2023-02-01T07:33:35;6.30;99.90
57664;DHT22;43493;53.098;6.064;2023-02-01T07:36:06;6.30;99.90
57664;DHT22;43493;53.098;6.064;2023-02-01T07:38:32;6.30;99.90
57664;DHT22;43493;53.098;6.064;2023-02-01T07:41:03;6.30;99.90
57664;DHT22;43493;53.098;6.064;2023-02-01T07:43:29;6.30;99.90
57664;DHT22;43493;53.098;6.064;2023-02-01T07:45:55;6.30;99.90
57664;DHT22;43493;53.098;6.064;2023-02-01T07:48:22;6.30;99.90
57664;DHT22;43493;53.098;6.064;2023-02-01T07:50:56;6.30;99.90
57664;DHT22;43493;53.098;6.064;2023-02-01T07:53:21;6.30;99.90
57664;DHT22;43493;53.098;6.064;2023-02-01T07:55:47;6.30;99.90
57664;DHT22;43493;53.098;6.064;2023-02-01T07:58:13;6.30;99.90
57664;DHT22;43493;53.098;6.064;2023-02-01T08:00:39;6.30;99.90
57664;DHT22;43493;53.098;6.064;2023-02-01T08:03:37;6.30;99.90
57664;DHT22;43493;53.098;6.064;2023-02-01T08:06:03;6.30;99.90
57664;DHT22;43493;53.098;6.064;2023-02-01T08:08:29;6.40;99.90
57664;DHT22;43493;53.098;6.064;2023-02-01T08:10:59;6.40;99.90
57664;DHT22;43493;53.098;6.064;2023-02-01T08:13:25;6.40;99.90
57664;DHT22;43493;53.098;6.064;2023-02-01T08:15:51;6.40;99.90
57664;DHT22;43493;53.098;6.064;2023-02-01T08:18:17;6.40;99.90
57664;DHT22;43493;53.098;6.064;2023-02-01T08:20:44;6.40;99.90
57664;DHT22;43493;53.098;6.064;2023-02-01T08:23:11;6.40;99.90
57664;DHT22;43493;53.098;6.064;2023-02-01T08:25:37;6.40;99.90
57664;DHT22;43493;53.098;6.064;2023-02-01T08:28:05;6.50;99.90
57664;DHT22;43493;53.098;6.064;2023-02-01T08:30:31;6.50;99.90
57664;DHT22;43493;53.098;6.064;2023-02-01T08:32:57;6.50;99.90
57664;DHT22;43493;53.098;6.064;2023-02-01T08:35:23;6.50;99.90
57664;DHT22;43493;53.098;6.064;2023-02-01T08:37:50;6.60;99.90
57664;DHT22;43493;53.098;6.064;2023-02-01T08:40:16;6.60;99.90
57664;DHT22;43493;53.098;6.064;2023-02-01T08:42:42;6.60;99.90
57664;DHT22;43493;53.098;6.064;2023-02-01T08:45:22;6.60;99.90
57664;DHT22;43493;53.098;6.064;2023-02-01T08:47:52;6.60;99.90
57664;DHT22;43493;53.098;6.064;2023-02-01T08:50:19;6.60;99.90
57664;DHT22;43493;53.098;6.064;2023-02-01T08:52:45;6.60;99.90
57664;DHT22;43493;53.098;6.064;2023-02-01T08:55:12;6.70;99.90
57664;DHT22;43493;53.098;6.064;2023-02-01T08:57:38;6.70;99.90
57664;DHT22;43493;53.098;6.064;2023-02-01T09:00:06;6.70;99.90
57664;DHT22;43493;53.098;6.064;2023-02-01T09:02:32;6.70;99.90
57664;DHT22;43493;53.098;6.064;2023-02-01T09:04:58;6.70;99.90
57664;DHT22;43493;53.098;6.064;2023-02-01T09:07:23;6.70;99.90
57664;DHT22;43493;53.098;6.064;2023-02-01T09:09:49;6.70;99.90
57664;DHT22;43493;53.098;6.064;2023-02-01T09:12:15;6.70;99.90
57664;DHT22;43493;53.098;6.064;2023-02-01T09:14:41;6.70;99.90
57664;DHT22;43493;53.098;6.064;2023-02-01T09:17:06;6.70;99.90
57664;DHT22;43493;53.098;6.064;2023-02-01T09:19:32;6.70;99.90
57664;DHT22;43493;53.098;6.064;2023-02-01T09:21:58;6.70;99.90
57664;DHT22;43493;53.098;6.064;2023-02-01T09:24:24;6.70;99.90
57664;DHT22;43493;53.098;6.064;2023-02-01T09:26:50;6.70;99.90
57664;DHT22;43493;53.098;6.064;2023-02-01T09:29:15;6.70;99.90
57664;DHT22;43493;53.098;6.064;2023-02-01T09:31:41;6.70;99.90
57664;DHT22;43493;53.098;6.064;2023-02-01T09:34:07;6.70;99.90
57664;DHT22;43493;53.098;6.064;2023-02-01T09:36:33;6.70;99.90
57664;DHT22;43493;53.098;6.064;2023-02-01T09:39:00;6.70;99.90
57664;DHT22;43493;53.098;6.064;2023-02-01T09:41:57;6.80;99.90
57664;DHT22;43493;53.098;6.064;2023-02-01T09:46:58;6.80;99.90
57664;DHT22;43493;53.098;6.064;2023-02-01T09:49:31;6.90;99.90
57664;DHT22;43493;53.098;6.064;2023-02-01T09:52:00;6.90;99.90
57664;DHT22;43493;53.098;6.064;2023-02-01T09:54:42;6.90;99.90
57664;DHT22;43493;53.098;6.064;2023-02-01T09:57:22;6.80;99.90
57664;DHT22;43493;53.098;6.064;2023-02-01T09:59:54;6.90;99.90
57664;DHT22;43493;53.098;6.064;2023-02-01T10:02:26;6.90;99.90
57664;DHT22;43493;53.098;6.064;2023-02-01T10:04:58;6.90;99.90
57664;DHT22;43493;53.098;6.064;2023-02-01T10:19:00;6.90;99.90
57664;DHT22;43493;53.098;6.064;2023-02-01T10:24:00;7.00;99.90
57664;DHT22;43493;53.098;6.064;2023-02-01T10:26:33;7.00;99.90
57664;DHT22;43493;53.098;6.064;2023-02-01T10:29:03;7.10;99.90
57664;DHT22;43493;53.098;6.064;2023-02-01T10:31:31;7.10;99.90
57664;DHT22;43493;53.098;6.064;2023-02-01T10:34:00;7.10;99.90
57664;DHT22;43493;53.098;6.064;2023-02-01T10:36:41;7.20;99.90
57664;DHT22;43493;53.098;6.064;2023-02-01T10:39:11;7.20;99.90
57664;DHT22;43493;53.098;6.064;2023-02-01T10:41:39;7.20;99.90
57664;DHT22;43493;53.098;6.064;2023-02-01T10:44:15;7.20;99.90
57664;DHT22;43493;53.098;6.064;2023-02-01T10:46:41;7.30;99.90
57664;DHT22;43493;53.098;6.064;2023-02-01T10:49:19;7.30;99.90
57664;DHT22;43493;53.098;6.064;2023-02-01T10:51:58;7.30;99.90
57664;DHT22;43493;53.098;6.064;2023-02-01T10:54:37;7.30;99.90
57664;DHT22;43493;53.098;6.064;2023-02-01T10:57:08;7.40;99.90
57664;DHT22;43493;53.098;6.064;2023-02-01T10:59:34;7.40;99.90
57664;DHT22;43493;53.098;6.064;2023-02-01T11:02:26;7.40;99.90
57664;DHT22;43493;53.098;6.064;2023-02-01T11:05:03;7.40;99.90
57664;DHT22;43493;53.098;6.064;2023-02-01T11:07:30;7.50;99.90
57664;DHT22;43493;53.098;6.064;2023-02-01T11:09:56;7.50;99.90
57664;DHT22;43493;53.098;6.064;2023-02-01T11:15:01;7.60;99.90
57664;DHT22;43493;53.098;6.064;2023-02-01T11:17:34;7.60;99.90
57664;DHT22;43493;53.098;6.064;2023-02-01T11:20:08;7.60;99.90
57664;DHT22;43493;53.098;6.064;2023-02-01T11:22:37;7.60;99.90
57664;DHT22;43493;53.098;6.064;2023-02-01T11:25:13;7.60;99.90
57664;DHT22;43493;53.098;6.064;2023-02-01T11:27:39;7.60;99.90
57664;DHT22;43493;53.098;6.064;2023-02-01T11:30:06;7.60;99.90
57664;DHT22;43493;53.098;6.064;2023-02-01T11:32:32;7.60;99.90
57664;DHT22;43493;53.098;6.064;2023-02-01T11:35:02;7.60;99.90
57664;DHT22;43493;53.098;6.064;2023-02-01T11:37:40;7.70;99.90
57664;DHT22;43493;53.098;6.064;2023-02-01T11:42:57;7.60;99.90
57664;DHT22;43493;53.098;6.064;2023-02-01T11:45:31;7.60;99.90
57664;DHT22;43493;53.098;6.064;2023-02-01T11:47:59;7.70;99.90
57664;DHT22;43493;53.098;6.064;2023-02-01T11:56:10;7.70;99.90
57664;DHT22;43493;53.098;6.064;2023-02-01T12:10:02;7.80;99.90
57664;DHT22;43493;53.098;6.064;2023-02-01T12:15:27;7.90;99.90
57664;DHT22;43493;53.098;6.064;2023-02-01T12:30:03;8.00;99.90
57664;DHT22;43493;53.098;6.064;2023-02-01T12:40:56;8.00;99.90
57664;DHT22;43493;53.098;6.064;2023-02-01T12:46:22;8.10;99.90
57664;DHT22;43493;53.098;6.064;2023-02-01T12:51:34;8.10;99.90
57664;DHT22;43493;53.098;6.064;2023-02-01T12:54:25;8.10;99.90
57664;DHT22;43493;53.098;6.064;2023-02-01T12:56:59;8.10;99.90
57664;DHT22;43493;53.098;6.064;2023-02-01T12:59:38;8.10;99.90
57664;DHT22;43493;53.098;6.064;2023-02-01T13:05:21;8.10;99.90
57664;DHT22;43493;53.098;6.064;2023-02-01T13:08:00;8.10;99.90
57664;DHT22;43493;53.098;6.064;2023-02-01T13:13:04;8.00;99.90
57664;DHT22;43493;53.098;6.064;2023-02-01T13:15:40;7.90;99.90
57664;DHT22;43493;53.098;6.064;2023-02-01T13:18:14;7.90;99.90
57664;DHT22;43493;53.098;6.064;2023-02-01T13:20:56;7.90;99.90
57664;DHT22;43493;53.098;6.064;2023-02-01T13:23:33;7.90;99.90
57664;DHT22;43493;53.098;6.064;2023-02-01T13:25:59;7.90;99.90
57664;DHT22;43493;53.098;6.064;2023-02-01T13:28:42;8.00;99.90
57664;DHT22;43493;53.098;6.064;2023-02-01T13:42:34;8.10;99.90
57664;DHT22;43493;53.098;6.064;2023-02-01T13:45:04;8.20;99.90
57664;DHT22;43493;53.098;6.064;2023-02-01T13:47:35;8.20;99.90
57664;DHT22;43493;53.098;6.064;2023-02-01T13:50:36;8.20;99.90
57664;DHT22;43493;53.098;6.064;2023-02-01T13:53:17;8.30;99.90
57664;DHT22;43493;53.098;6.064;2023-02-01T13:55:45;8.20;99.90
57664;DHT22;43493;53.098;6.064;2023-02-01T13:58:21;8.20;99.90
57664;DHT22;43493;53.098;6.064;2023-02-01T14:00:49;8.30;99.90
57664;DHT22;43493;53.098;6.064;2023-02-01T14:03:22;8.30;99.90
57664;DHT22;43493;53.098;6.064;2023-02-01T14:08:36;8.20;99.90
57664;DHT22;43493;53.098;6.064;2023-02-01T14:11:02;8.20;99.90
57664;DHT22;43493;53.098;6.064;2023-02-01T14:13:39;8.10;99.90
57664;DHT22;43493;53.098;6.064;2023-02-01T14:21:19;8.00;99.90
57664;DHT22;43493;53.098;6.064;2023-02-01T14:26:45;8.00;99.90
57664;DHT22;43493;53.098;6.064;2023-02-01T14:29:29;8.10;99.90
57664;DHT22;43493;53.098;6.064;2023-02-01T14:32:22;8.10;99.90
57664;DHT22;43493;53.098;6.064;2023-02-01T14:34:56;8.00;99.90
57664;DHT22;43493;53.098;6.064;2023-02-01T14:37:34;8.10;99.90
57664;DHT22;43493;53.098;6.064;2023-02-01T14:40:15;8.00;99.90
57664;DHT22;43493;53.098;6.064;2023-02-01T14:50:35;8.10;99.90
57664;DHT22;43493;53.098;6.064;2023-02-01T14:56:07;8.30;99.90
57664;DHT22;43493;53.098;6.064;2023-02-01T14:58:57;8.30;99.90
57664;DHT22;43493;53.098;6.064;2023-02-01T15:04:04;8.30;99.90
57664;DHT22;43493;53.098;6.064;2023-02-01T15:06:43;8.20;99.90
57664;DHT22;43493;53.098;6.064;2023-02-01T15:12:02;8.20;99.90
57664;DHT22;43493;53.098;6.064;2023-02-01T15:14:42;8.20;99.90
57664;DHT22;43493;53.098;6.064;2023-02-01T15:17:23;8.20;99.90
57664;DHT22;43493;53.098;6.064;2023-02-01T15:19:53;8.10;99.90
57664;DHT22;43493;53.098;6.064;2023-02-01T15:22:19;8.10;99.90
57664;DHT22;43493;53.098;6.064;2023-02-01T15:24:52;8.10;99.90
57664;DHT22;43493;53.098;6.064;2023-02-01T15:27:19;8.10;99.90
57664;DHT22;43493;53.098;6.064;2023-02-01T15:29:44;8.10;99.90
57664;DHT22;43493;53.098;6.064;2023-02-01T15:32:32;8.00;99.90
57664;DHT22;43493;53.098;6.064;2023-02-01T15:34:59;8.00;99.90
57664;DHT22;43493;53.098;6.064;2023-02-01T15:37:28;8.00;99.90
57664;DHT22;43493;53.098;6.064;2023-02-01T15:40:19;8.00;99.90
57664;DHT22;43493;53.098;6.064;2023-02-01T15:42:58;7.90;99.90
57664;DHT22;43493;53.098;6.064;2023-02-01T15:45:29;7.90;99.90
57664;DHT22;43493;53.098;6.064;2023-02-01T15:47:58;7.90;99.90
57664;DHT22;43493;53.098;6.064;2023-02-01T15:50:25;7.90;99.90
57664;DHT22;43493;53.098;6.064;2023-02-01T15:52:53;7.90;99.90
57664;DHT22;43493;53.098;6.064;2023-02-01T15:55:24;7.80;99.90
57664;DHT22;43493;53.098;6.064;2023-02-01T15:57:51;7.80;99.90
57664;DHT22;43493;53.098;6.064;2023-02-01T16:00:26;7.70;99.90
57664;DHT22;43493;53.098;6.064;2023-02-01T16:02:55;7.70;99.90
57664;DHT22;43493;53.098;6.064;2023-02-01T16:05:36;7.60;99.90
57664;DHT22;43493;53.098;6.064;2023-02-01T16:08:15;7.60;99.90
57664;DHT22;43493;53.098;6.064;2023-02-01T16:10:47;7.60;99.90
57664;DHT22;43493;53.098;6.064;2023-02-01T16:13:14;7.60;99.90
57664;DHT22;43493;53.098;6.064;2023-02-01T16:15:41;7.50;99.90
57664;DHT22;43493;53.098;6.064;2023-02-01T16:18:07;7.50;99.90
57664;DHT22;43493;53.098;6.064;2023-02-01T16:20:34;7.50;99.90
57664;DHT22;43493;53.098;6.064;2023-02-01T16:23:01;7.50;99.90
57664;DHT22;43493;53.098;6.064;2023-02-01T16:25:28;7.40;99.90
57664;DHT22;43493;53.098;6.064;2023-02-01T16:27:53;7.40;99.90
57664;DHT22;43493;53.098;6.064;2023-02-01T16:30:19;7.40;99.90
57664;DHT22;43493;53.098;6.064;2023-02-01T16:32:55;7.40;99.90
57664;DHT22;43493;53.098;6.064;2023-02-01T16:37:53;7.40;99.90
57664;DHT22;43493;53.098;6.064;2023-02-01T16:40:20;7.40;99.90
57664;DHT22;43493;53.098;6.064;2023-02-01T16:42:51;7.40;99.90
57664;DHT22;43493;53.098;6.064;2023-02-01T16:45:18;7.30;99.90
57664;DHT22;43493;53.098;6.064;2023-02-01T16:47:54;7.40;99.90
57664;DHT22;43493;53.098;6.064;2023-02-01T16:50:25;7.30;99.90
57664;DHT22;43493;53.098;6.064;2023-02-01T16:52:52;7.30;99.90
57664;DHT22;43493;53.098;6.064;2023-02-01T16:55:20;7.30;99.90
57664;DHT22;43493;53.098;6.064;2023-02-01T16:57:47;7.30;99.90
57664;DHT22;43493;53.098;6.064;2023-02-01T17:00:13;7.30;99.90
57664;DHT22;43493;53.098;6.064;2023-02-01T17:02:41;7.20;99.90
57664;DHT22;43493;53.098;6.064;2023-02-01T17:05:08;7.20;99.90
57664;DHT22;43493;53.098;6.064;2023-02-01T17:07:35;7.20;99.90
57664;DHT22;43493;53.098;6.064;2023-02-01T17:10:04;7.10;99.90
57664;DHT22;43493;53.098;6.064;2023-02-01T17:12:32;7.10;99.90
57664;DHT22;43493;53.098;6.064;2023-02-01T17:14:59;7.10;99.90
57664;DHT22;43493;53.098;6.064;2023-02-01T17:17:35;7.10;99.90
57664;DHT22;43493;53.098;6.064;2023-02-01T17:20:03;7.10;99.90
57664;DHT22;43493;53.098;6.064;2023-02-01T17:22:29;7.10;99.90
57664;DHT22;43493;53.098;6.064;2023-02-01T17:24:54;7.00;99.90
57664;DHT22;43493;53.098;6.064;2023-02-01T17:27:20;7.00;99.90
57664;DHT22;43493;53.098;6.064;2023-02-01T17:29:46;7.00;99.90
57664;DHT22;43493;53.098;6.064;2023-02-01T17:32:20;7.00;99.90
57664;DHT22;43493;53.098;6.064;2023-02-01T17:34:47;7.00;99.90
57664;DHT22;43493;53.098;6.064;2023-02-01T17:37:24;7.00;99.90
57664;DHT22;43493;53.098;6.064;2023-02-01T17:39:50;6.90;99.90
57664;DHT22;43493;53.098;6.064;2023-02-01T17:42:23;6.90;99.90
57664;DHT22;43493;53.098;6.064;2023-02-01T17:44:52;7.00;99.90
57664;DHT22;43493;53.098;6.064;2023-02-01T17:47:20;7.00;99.90
57664;DHT22;43493;53.098;6.064;2023-02-01T17:49:45;7.00;99.90
57664;DHT22;43493;53.098;6.064;2023-02-01T17:52:16;7.00;99.90
57664;DHT22;43493;53.098;6.064;2023-02-01T17:54:42;6.90;99.90
57664;DHT22;43493;53.098;6.064;2023-02-01T17:57:12;6.90;99.90
57664;DHT22;43493;53.098;6.064;2023-02-01T17:59:38;6.90;99.90
57664;DHT22;43493;53.098;6.064;2023-02-01T18:02:43;6.80;99.90
57664;DHT22;43493;53.098;6.064;2023-02-01T18:05:13;6.80;99.90
57664;DHT22;43493;53.098;6.064;2023-02-01T18:07:40;6.80;99.90
57664;DHT22;43493;53.098;6.064;2023-02-01T18:10:06;6.80;99.90
57664;DHT22;43493;53.098;6.064;2023-02-01T18:12:32;6.70;99.90
57664;DHT22;43493;53.098;6.064;2023-02-01T18:14:58;6.70;99.90
57664;DHT22;43493;53.098;6.064;2023-02-01T18:17:23;6.70;99.90
57664;DHT22;43493;53.098;6.064;2023-02-01T18:19:49;6.70;99.90
57664;DHT22;43493;53.098;6.064;2023-02-01T18:22:17;6.70;99.90
57664;DHT22;43493;53.098;6.064;2023-02-01T18:24:43;6.70;99.90
57664;DHT22;43493;53.098;6.064;2023-02-01T18:27:09;6.70;99.90
57664;DHT22;43493;53.098;6.064;2023-02-01T18:29:34;6.70;99.90
57664;DHT22;43493;53.098;6.064;2023-02-01T18:32:01;6.60;99.90
57664;DHT22;43493;53.098;6.064;2023-02-01T18:34:27;6.60;99.90